Time;durP1;ratioP1;P1;durP2;ratioP2;P2;SDS_P1;SDS_P2;PMS_P1;PMS_P2;Temp;Humidity;BMP_temperature;BMP_pressure;BME280_temperature;BME280_humidity;BME280_pressure;Samples;Min_cycle;Max_cycle;Signal;HPM_P1;HPM_P2
2023/07/20 00:00:56;;;;;;;7.97;3.27;;;;;;;;;;5033057;28;20644;-72
2023/07/20 00:03:24;;;;;;;10.63;2.97;;;;;;;;;;5028586;28;20283;-71
2023/07/20 00:05:50;;;;;;;8.25;2.92;;;;;;;;;;5024952;28;20623;-71
2023/07/20 00:08:15;;;;;;;6.00;3.10;;;;;;;;;;5030682;28;20009;-72
2023/07/20 00:10:41;;;;;;;14.13;4.40;;;;;;;;;;5032971;28;20024;-72
2023/07/20 00:13:06;;;;;;;9.70;3.03;;;;;;;;;;5029897;28;20095;-71
2023/07/20 00:15:32;;;;;;;11.52;3.15;;;;;;;;;;5028436;28;20025;-72
2023/07/20 00:17:57;;;;;;;8.55;3.20;;;;;;;;;;5033247;28;20032;-72
2023/07/20 00:20:23;;;;;;;12.38;3.17;;;;;;;;;;5031205;28;20025;-72
2023/07/20 00:22:50;;;;;;;9.50;3.03;;;;;;;;;;5032463;28;20021;-72
2023/07/20 00:25:16;;;;;;;7.25;3.20;;;;;;;;;;5033028;28;20514;-71
2023/07/20 00:27:41;;;;;;;9.75;3.08;;;;;;;;;;5032478;28;20105;-72
2023/07/20 00:30:06;;;;;;;5.13;3.23;;;;;;;;;;5032303;28;20102;-72
2023/07/20 00:32:32;;;;;;;10.10;3.28;;;;;;;;;;5028760;28;20605;-71
2023/07/20 00:34:57;;;;;;;9.77;2.90;;;;;;;;;;5032518;28;20042;-72
2023/07/20 00:37:22;;;;;;;8.20;3.00;;;;;;;;;;5022529;28;20401;-72
2023/07/20 00:39:47;;;;;;;9.75;3.80;;;;;;;;;;5030000;28;20025;-72
2023/07/20 00:42:12;;;;;;;4.23;2.50;;;;;;;;;;5032107;28;20226;-72
2023/07/20 00:44:38;;;;;;;8.70;2.73;;;;;;;;;;5029009;28;20275;-72
2023/07/20 00:47:03;;;;;;;8.90;3.17;;;;;;;;;;5032567;28;20379;-72
2023/07/20 00:49:29;;;;;;;12.85;3.40;;;;;;;;;;5031880;28;20742;-71
2023/07/20 00:51:54;;;;;;;11.38;3.10;;;;;;;;;;5030313;28;20037;-71
2023/07/20 00:54:19;;;;;;;6.20;2.35;;;;;;;;;;5030692;28;20059;-72
2023/07/20 00:56:45;;;;;;;5.75;3.00;;;;;;;;;;5028773;28;20045;-72
2023/07/20 00:59:10;;;;;;;14.98;2.80;;;;;;;;;;5031604;28;20014;-72
2023/07/20 01:01:35;;;;;;;11.07;2.47;;;;;;;;;;5032081;28;20058;-71
2023/07/20 01:04:00;;;;;;;5.93;2.30;;;;;;;;;;5029992;28;20125;-72
2023/07/20 01:06:33;;;;;;;8.98;2.30;;;;;;;;;;5028068;28;20022;-71
2023/07/20 01:09:07;;;;;;;6.30;2.92;;;;;;;;;;5031717;28;20522;-72
2023/07/20 01:11:51;;;;;;;7.20;2.75;;;;;;;;;;5032709;28;20037;-71
2023/07/20 01:14:16;;;;;;;9.05;2.90;;;;;;;;;;5028975;28;20057;-72
2023/07/20 01:16:41;;;;;;;8.70;3.00;;;;;;;;;;5028897;28;20068;-72
2023/07/20 01:19:07;;;;;;;9.97;3.67;;;;;;;;;;5033686;28;20021;-71
2023/07/20 01:21:39;;;;;;;5.73;2.80;;;;;;;;;;5031796;28;20260;-72
2023/07/20 01:24:17;;;;;;;6.22;3.20;;;;;;;;;;5022694;28;20306;-71
2023/07/20 01:26:45;;;;;;;14.77;3.20;;;;;;;;;;5029003;28;20018;-71
2023/07/20 01:29:37;;;;;;;9.10;3.03;;;;;;;;;;5030027;28;20359;-72
2023/07/20 01:32:03;;;;;;;8.85;4.10;;;;;;;;;;5014729;28;20038;-71
2023/07/20 01:34:29;;;;;;;10.40;3.38;;;;;;;;;;5027718;28;20018;-72
2023/07/20 01:36:54;;;;;;;5.63;2.80;;;;;;;;;;5033621;28;20456;-72
2023/07/20 01:39:20;;;;;;;11.00;3.20;;;;;;;;;;5025269;28;20070;-71
2023/07/20 01:41:46;;;;;;;7.15;3.00;;;;;;;;;;5025445;28;20025;-71
2023/07/20 01:44:12;;;;;;;9.18;3.25;;;;;;;;;;5027412;28;20014;-71
2023/07/20 01:46:38;;;;;;;8.75;2.92;;;;;;;;;;5031204;28;20033;-71
2023/07/20 01:49:03;;;;;;;7.43;3.13;;;;;;;;;;5032932;28;20024;-71
2023/07/20 01:51:28;;;;;;;17.80;3.00;;;;;;;;;;5028695;28;20026;-71
2023/07/20 01:53:53;;;;;;;10.55;3.22;;;;;;;;;;5025055;28;20025;-72
2023/07/20 01:56:19;;;;;;;8.95;3.45;;;;;;;;;;5029091;28;20120;-71
2023/07/20 01:58:44;;;;;;;6.93;4.15;;;;;;;;;;5030999;28;20430;-72
2023/07/20 02:01:09;;;;;;;9.30;2.97;;;;;;;;;;5030702;28;20033;-71
2023/07/20 02:03:35;;;;;;;11.50;3.63;;;;;;;;;;5028208;28;20672;-72
2023/07/20 02:06:00;;;;;;;6.03;2.78;;;;;;;;;;5026298;28;20252;-72
2023/07/20 02:08:25;;;;;;;5.30;2.83;;;;;;;;;;5026069;28;20055;-71
2023/07/20 02:10:51;;;;;;;11.50;3.50;;;;;;;;;;5030553;28;20245;-72
2023/07/20 02:13:16;;;;;;;6.55;2.70;;;;;;;;;;5024345;28;20021;-71
2023/07/20 02:15:42;;;;;;;7.35;2.80;;;;;;;;;;5026856;28;20025;-72
2023/07/20 02:18:07;;;;;;;8.95;2.63;;;;;;;;;;5021589;28;20022;-72
2023/07/20 02:20:33;;;;;;;6.85;3.13;;;;;;;;;;5030484;28;20378;-72
2023/07/20 02:22:58;;;;;;;7.60;2.88;;;;;;;;;;5030624;28;20013;-72
2023/07/20 02:25:23;;;;;;;9.23;3.30;;;;;;;;;;5028725;28;20099;-71
2023/07/20 02:27:48;;;;;;;8.33;2.60;;;;;;;;;;5027572;28;20275;-72
2023/07/20 02:30:13;;;;;;;5.17;2.73;;;;;;;;;;5030532;28;20267;-71
2023/07/20 02:32:38;;;;;;;5.37;2.20;;;;;;;;;;5032643;28;20382;-72
2023/07/20 02:35:04;;;;;;;5.88;2.50;;;;;;;;;;5028193;28;20274;-72
2023/07/20 02:37:29;;;;;;;6.15;2.25;;;;;;;;;;5029903;28;20265;-72
2023/07/20 02:39:55;;;;;;;5.73;2.60;;;;;;;;;;5030030;28;20033;-72
2023/07/20 02:42:22;;;;;;;10.95;2.63;;;;;;;;;;5030335;28;20256;-71
2023/07/20 02:44:47;;;;;;;3.78;1.88;;;;;;;;;;5029538;28;20013;-72
2023/07/20 02:47:13;;;;;;;14.43;3.97;;;;;;;;;;5027178;28;20052;-71
2023/07/20 02:49:38;;;;;;;6.78;2.30;;;;;;;;;;5028998;28;20092;-71
2023/07/20 02:52:03;;;;;;;6.20;2.70;;;;;;;;;;5029513;28;20033;-72
2023/07/20 02:54:29;;;;;;;6.05;2.42;;;;;;;;;;5031865;28;20673;-71
2023/07/20 02:56:55;;;;;;;6.18;2.55;;;;;;;;;;5028418;28;20043;-71
2023/07/20 02:59:20;;;;;;;9.83;3.10;;;;;;;;;;5030152;28;20575;-71
2023/07/20 03:01:46;;;;;;;5.40;3.20;;;;;;;;;;5024487;28;20029;-71
2023/07/20 03:04:11;;;;;;;13.50;3.60;;;;;;;;;;5026402;28;20052;-72
2023/07/20 03:06:36;;;;;;;8.07;3.23;;;;;;;;;;5024114;28;20100;-72
2023/07/20 03:09:02;;;;;;;11.90;3.22;;;;;;;;;;5030188;28;20283;-72
2023/07/20 03:11:27;;;;;;;6.75;3.00;;;;;;;;;;5027562;28;20060;-71
2023/07/20 03:13:52;;;;;;;8.50;2.93;;;;;;;;;;5025316;28;20104;-71
2023/07/20 03:16:18;;;;;;;10.27;3.20;;;;;;;;;;5028551;28;20283;-71
2023/07/20 03:18:43;;;;;;;11.38;3.90;;;;;;;;;;5027762;28;20108;-72
2023/07/20 03:21:11;;;;;;;9.75;3.72;;;;;;;;;;5029124;28;20024;-71
2023/07/20 03:23:36;;;;;;;8.27;3.67;;;;;;;;;;5030073;28;20379;-71
2023/07/20 03:26:01;;;;;;;10.98;4.00;;;;;;;;;;5024591;28;20021;-72
2023/07/20 03:28:27;;;;;;;6.00;3.37;;;;;;;;;;5029925;28;20111;-71
2023/07/20 03:30:58;;;;;;;9.77;4.30;;;;;;;;;;5032134;28;20647;-72
2023/07/20 03:33:27;;;;;;;11.63;4.22;;;;;;;;;;5029616;28;20439;-71
2023/07/20 03:35:53;;;;;;;10.53;4.07;;;;;;;;;;5024845;28;20033;-72
2023/07/20 03:38:18;;;;;;;9.18;3.95;;;;;;;;;;5026018;28;20028;-72
2023/07/20 03:40:50;;;;;;;10.10;4.55;;;;;;;;;;5029704;28;20592;-71
2023/07/20 03:43:15;;;;;;;12.25;3.85;;;;;;;;;;5029998;28;20148;-71
2023/07/20 03:45:40;;;;;;;15.50;4.87;;;;;;;;;;5031165;28;20510;-72
2023/07/20 03:48:06;;;;;;;14.30;4.50;;;;;;;;;;5027344;28;20294;-72
2023/07/20 03:50:31;;;;;;;11.63;4.80;;;;;;;;;;5020782;28;20265;-72
2023/07/20 03:52:56;;;;;;;12.50;5.03;;;;;;;;;;5029663;28;20347;-71
2023/07/20 03:55:21;;;;;;;15.67;5.87;;;;;;;;;;5028778;28;20283;-71
2023/07/20 03:57:46;;;;;;;17.93;4.93;;;;;;;;;;5030683;28;20284;-72
2023/07/20 04:00:14;;;;;;;14.43;5.20;;;;;;;;;;5028518;28;20276;-71
2023/07/20 04:02:39;;;;;;;13.98;4.85;;;;;;;;;;5027962;28;20033;-71
2023/07/20 04:05:04;;;;;;;15.80;4.90;;;;;;;;;;5030532;28;20064;-71
2023/07/20 04:07:30;;;;;;;20.80;5.72;;;;;;;;;;5031244;28;20040;-72
2023/07/20 04:09:55;;;;;;;14.80;5.37;;;;;;;;;;5029389;28;20030;-71
2023/07/20 04:12:20;;;;;;;17.87;5.20;;;;;;;;;;5029615;28;20620;-72
2023/07/20 04:14:45;;;;;;;18.70;5.90;;;;;;;;;;5030749;28;20383;-72
2023/07/20 04:17:13;;;;;;;19.60;5.10;;;;;;;;;;5032547;28;20037;-71
2023/07/20 04:19:38;;;;;;;16.77;5.43;;;;;;;;;;5029593;28;20684;-71
2023/07/20 04:22:03;;;;;;;22.73;5.47;;;;;;;;;;5030404;28;20100;-72
2023/07/20 04:24:28;;;;;;;23.52;5.88;;;;;;;;;;5030849;28;20075;-72
2023/07/20 04:26:54;;;;;;;17.23;5.77;;;;;;;;;;5030413;28;20071;-72
2023/07/20 04:29:19;;;;;;;20.97;5.80;;;;;;;;;;5033234;28;20279;-72
2023/07/20 04:31:44;;;;;;;16.77;5.10;;;;;;;;;;5028816;28;20753;-72
2023/07/20 04:34:09;;;;;;;12.52;4.78;;;;;;;;;;5033743;28;20378;-72
2023/07/20 04:36:35;;;;;;;22.48;5.18;;;;;;;;;;5028767;28;20616;-72
2023/07/20 04:39:00;;;;;;;17.85;5.82;;;;;;;;;;5030929;28;20025;-72
2023/07/20 04:41:26;;;;;;;14.93;5.73;;;;;;;;;;5029120;28;20017;-72
2023/07/20 04:43:51;;;;;;;26.33;5.78;;;;;;;;;;5029014;28;20316;-72
2023/07/20 04:46:18;;;;;;;15.50;5.97;;;;;;;;;;5029229;28;20049;-72
2023/07/20 04:48:43;;;;;;;17.67;4.63;;;;;;;;;;5032212;28;20018;-72
2023/07/20 04:51:10;;;;;;;17.70;5.43;;;;;;;;;;5032175;28;20374;-72
2023/07/20 04:53:35;;;;;;;15.20;4.75;;;;;;;;;;5032962;28;20049;-72
2023/07/20 04:56:00;;;;;;;10.90;4.65;;;;;;;;;;5032464;28;20076;-72
2023/07/20 04:58:26;;;;;;;12.35;4.35;;;;;;;;;;5027568;28;20018;-72
2023/07/20 05:00:51;;;;;;;16.95;5.00;;;;;;;;;;5033642;28;20017;-72
2023/07/20 05:03:16;;;;;;;10.07;4.20;;;;;;;;;;5031312;28;20018;-72
2023/07/20 05:05:42;;;;;;;11.98;4.10;;;;;;;;;;5031000;28;20086;-72
2023/07/20 05:08:07;;;;;;;13.73;4.28;;;;;;;;;;5031012;28;20437;-72
2023/07/20 05:10:32;;;;;;;12.73;5.30;;;;;;;;;;5026563;28;20032;-72
2023/07/20 05:12:57;;;;;;;9.57;4.43;;;;;;;;;;5031341;28;20803;-72
2023/07/20 05:15:22;;;;;;;13.45;4.55;;;;;;;;;;5033727;28;20163;-72
2023/07/20 05:17:48;;;;;;;16.80;5.33;;;;;;;;;;5030213;28;20521;-72
2023/07/20 05:20:13;;;;;;;12.50;4.43;;;;;;;;;;5033083;28;20056;-72
2023/07/20 05:22:39;;;;;;;11.82;4.65;;;;;;;;;;5025523;28;20029;-72
2023/07/20 05:25:06;;;;;;;11.98;5.53;;;;;;;;;;5026850;28;20025;-72
2023/07/20 05:27:31;;;;;;;17.30;6.40;;;;;;;;;;5031077;28;20027;-72
2023/07/20 05:29:56;;;;;;;15.73;5.37;;;;;;;;;;5027297;28;20040;-72
2023/07/20 05:32:21;;;;;;;14.00;5.30;;;;;;;;;;5029147;28;20757;-72
2023/07/20 05:34:47;;;;;;;23.73;6.63;;;;;;;;;;5027769;28;20288;-72
2023/07/20 05:37:12;;;;;;;14.48;5.57;;;;;;;;;;5028205;28;20371;-72
2023/07/20 05:39:37;;;;;;;12.63;5.77;;;;;;;;;;5030028;28;20044;-72
2023/07/20 05:42:02;;;;;;;18.53;6.17;;;;;;;;;;5019561;28;20323;-72
2023/07/20 05:44:28;;;;;;;15.13;6.72;;;;;;;;;;5027940;28;20823;-72
2023/07/20 05:46:53;;;;;;;12.17;5.40;;;;;;;;;;5027548;28;20687;-72
2023/07/20 05:49:18;;;;;;;13.20;6.53;;;;;;;;;;5027435;28;20306;-73
2023/07/20 05:51:43;;;;;;;14.43;6.87;;;;;;;;;;5028544;28;20290;-72
2023/07/20 05:54:08;;;;;;;12.10;6.13;;;;;;;;;;5022782;28;20283;-72
2023/07/20 05:56:33;;;;;;;16.67;7.30;;;;;;;;;;5026216;28;20347;-72
2023/07/20 05:58:59;;;;;;;16.85;8.35;;;;;;;;;;5023531;28;20273;-72
2023/07/20 06:01:27;;;;;;;16.70;8.60;;;;;;;;;;5027132;28;20025;-72
2023/07/20 06:03:52;;;;;;;25.48;8.23;;;;;;;;;;5028660;28;20669;-72
2023/07/20 06:06:17;;;;;;;21.77;10.32;;;;;;;;;;5028365;28;20025;-72
2023/07/20 06:08:42;;;;;;;19.53;9.10;;;;;;;;;;5025878;28;20553;-72
2023/07/20 06:11:07;;;;;;;18.08;8.88;;;;;;;;;;5029559;28;20272;-72
2023/07/20 06:13:33;;;;;;;16.37;8.53;;;;;;;;;;5030382;28;20025;-72
2023/07/20 06:15:58;;;;;;;23.43;9.77;;;;;;;;;;5026860;28;20260;-72
2023/07/20 06:18:23;;;;;;;23.73;8.87;;;;;;;;;;5027860;28;20107;-72
2023/07/20 06:20:49;;;;;;;23.47;8.87;;;;;;;;;;5026211;28;20307;-72
2023/07/20 06:23:14;;;;;;;20.23;9.40;;;;;;;;;;5034110;28;20351;-72
2023/07/20 06:25:39;;;;;;;21.57;9.20;;;;;;;;;;5019505;28;20619;-72
2023/07/20 06:28:04;;;;;;;18.97;9.57;;;;;;;;;;5029530;28;20025;-72
2023/07/20 06:30:30;;;;;;;18.52;11.50;;;;;;;;;;5028478;28;20299;-73
2023/07/20 06:32:55;;;;;;;17.08;10.35;;;;;;;;;;5030540;28;20018;-72
2023/07/20 06:35:20;;;;;;;24.52;10.32;;;;;;;;;;5024357;28;20026;-72
2023/07/20 06:37:46;;;;;;;17.80;10.52;;;;;;;;;;5021079;28;20021;-72
2023/07/20 06:40:12;;;;;;;18.00;10.47;;;;;;;;;;5022874;28;20402;-72
2023/07/20 06:42:37;;;;;;;26.60;12.50;;;;;;;;;;5031288;28;20713;-72
2023/07/20 06:45:02;;;;;;;24.48;12.52;;;;;;;;;;5029027;28;20103;-73
2023/07/20 06:47:27;;;;;;;20.35;12.38;;;;;;;;;;5021393;28;20112;-72
2023/07/20 06:49:53;;;;;;;19.33;12.13;;;;;;;;;;5024681;28;20053;-72
2023/07/20 06:52:18;;;;;;;21.20;11.43;;;;;;;;;;5028514;28;20025;-72
2023/07/20 06:54:43;;;;;;;17.53;10.50;;;;;;;;;;5029234;28;20271;-72
2023/07/20 06:57:08;;;;;;;19.98;11.55;;;;;;;;;;5031623;28;20275;-72
2023/07/20 06:59:33;;;;;;;22.60;11.17;;;;;;;;;;5024254;28;20029;-72
2023/07/20 07:01:59;;;;;;;21.73;12.52;;;;;;;;;;5024185;28;20272;-73
2023/07/20 07:04:24;;;;;;;25.17;13.10;;;;;;;;;;5029535;28;20534;-72
2023/07/20 07:06:49;;;;;;;21.03;12.57;;;;;;;;;;5025668;28;20034;-73
2023/07/20 07:09:15;;;;;;;20.40;11.80;;;;;;;;;;5028533;28;20358;-72
2023/07/20 07:11:40;;;;;;;18.98;11.05;;;;;;;;;;5020067;28;20383;-72
2023/07/20 07:14:05;;;;;;;16.27;9.97;;;;;;;;;;5023390;28;20120;-72
2023/07/20 07:16:30;;;;;;;17.23;9.13;;;;;;;;;;5028089;28;20033;-72
2023/07/20 07:18:55;;;;;;;21.23;8.33;;;;;;;;;;5027158;28;20053;-72
2023/07/20 07:21:20;;;;;;;15.30;9.03;;;;;;;;;;5029459;28;20272;-72
2023/07/20 07:23:46;;;;;;;13.87;8.20;;;;;;;;;;5028748;28;20268;-72
2023/07/20 07:26:11;;;;;;;14.40;9.50;;;;;;;;;;5029227;28;20268;-72
2023/07/20 07:28:36;;;;;;;18.38;8.77;;;;;;;;;;5029616;28;20289;-72
2023/07/20 07:31:04;;;;;;;20.35;8.98;;;;;;;;;;5033778;28;20013;-72
2023/07/20 07:33:29;;;;;;;13.30;7.93;;;;;;;;;;5026619;28;20027;-72
2023/07/20 07:35:54;;;;;;;13.43;8.03;;;;;;;;;;5033459;28;20029;-72
2023/07/20 07:38:19;;;;;;;10.67;7.33;;;;;;;;;;5031955;28;20641;-72
2023/07/20 07:40:45;;;;;;;11.30;8.03;;;;;;;;;;5032950;28;20111;-72
2023/07/20 07:43:10;;;;;;;12.27;8.38;;;;;;;;;;5033818;28;20299;-72
2023/07/20 07:45:38;;;;;;;13.80;7.18;;;;;;;;;;5030244;28;20017;-72
2023/07/20 07:48:05;;;;;;;15.32;8.20;;;;;;;;;;5032708;28;20022;-72
2023/07/20 07:50:30;;;;;;;13.80;6.95;;;;;;;;;;5030314;28;20018;-72
2023/07/20 07:52:55;;;;;;;9.70;5.67;;;;;;;;;;5031701;28;20067;-72
2023/07/20 07:55:20;;;;;;;11.10;6.28;;;;;;;;;;5029568;28;20288;-73
2023/07/20 07:57:47;;;;;;;9.03;4.73;;;;;;;;;;5031279;28;20032;-73
2023/07/20 08:00:14;;;;;;;9.15;6.07;;;;;;;;;;5028156;28;20268;-73
2023/07/20 08:02:40;;;;;;;8.35;4.65;;;;;;;;;;5034212;28;20079;-72
2023/07/20 08:05:05;;;;;;;7.10;4.82;;;;;;;;;;5032673;28;20025;-73
2023/07/20 08:07:30;;;;;;;8.60;4.55;;;;;;;;;;5025146;28;20034;-73
2023/07/20 08:09:55;;;;;;;9.77;4.90;;;;;;;;;;5029128;28;20129;-72
2023/07/20 08:12:21;;;;;;;14.70;5.40;;;;;;;;;;5031335;28;20283;-72
2023/07/20 08:14:46;;;;;;;9.00;4.72;;;;;;;;;;5032933;28;20312;-72
2023/07/20 08:17:11;;;;;;;11.57;4.60;;;;;;;;;;5026184;28;20426;-72
2023/07/20 08:19:37;;;;;;;15.80;5.87;;;;;;;;;;5031332;28;20104;-72
2023/07/20 08:22:02;;;;;;;8.60;4.30;;;;;;;;;;5032337;28;20284;-72
2023/07/20 08:24:27;;;;;;;8.75;4.68;;;;;;;;;;5032388;28;20013;-72
2023/07/20 08:26:53;;;;;;;8.20;3.90;;;;;;;;;;5031962;28;20372;-72
2023/07/20 08:29:18;;;;;;;10.70;4.43;;;;;;;;;;5028901;28;20291;-72
2023/07/20 08:31:43;;;;;;;5.85;3.83;;;;;;;;;;5022833;28;20277;-72
2023/07/20 08:34:08;;;;;;;12.43;4.95;;;;;;;;;;5033564;28;20021;-72
2023/07/20 08:36:33;;;;;;;10.70;4.53;;;;;;;;;;5031217;28;20505;-72
2023/07/20 08:38:59;;;;;;;8.57;4.13;;;;;;;;;;5031271;28;20282;-72
2023/07/20 08:41:24;;;;;;;7.25;2.95;;;;;;;;;;5028674;28;20029;-72
2023/07/20 08:43:51;;;;;;;4.80;2.43;;;;;;;;;;5032843;28;20017;-72
2023/07/20 08:46:16;;;;;;;6.22;2.58;;;;;;;;;;5029546;28;20304;-72
2023/07/20 08:48:42;;;;;;;4.03;2.47;;;;;;;;;;5032053;28;20085;-72
2023/07/20 08:51:07;;;;;;;7.45;2.63;;;;;;;;;;5031375;28;20033;-72
2023/07/20 08:53:32;;;;;;;5.97;2.63;;;;;;;;;;5032038;28;20029;-72
2023/07/20 08:55:58;;;;;;;4.38;2.47;;;;;;;;;;5030740;28;20287;-72
2023/07/20 08:58:25;;;;;;;4.45;2.90;;;;;;;;;;5029997;28;20437;-72
2023/07/20 09:00:51;;;;;;;2.97;1.67;;;;;;;;;;5030731;28;20386;-72
2023/07/20 09:03:16;;;;;;;3.95;1.30;;;;;;;;;;5030411;28;20020;-72
2023/07/20 09:05:41;;;;;;;2.75;1.00;;;;;;;;;;5027210;28;20029;-72
2023/07/20 09:08:07;;;;;;;2.80;1.10;;;;;;;;;;5032792;28;20396;-72
2023/07/20 09:10:32;;;;;;;3.38;0.88;;;;;;;;;;5027786;28;20286;-72
2023/07/20 09:12:57;;;;;;;2.75;1.00;;;;;;;;;;5031791;28;20514;-72
2023/07/20 09:15:23;;;;;;;1.30;0.90;;;;;;;;;;5027754;28;20368;-72
2023/07/20 09:17:49;;;;;;;2.60;1.05;;;;;;;;;;5030750;28;20294;-72
2023/07/20 09:20:14;;;;;;;4.10;1.33;;;;;;;;;;5031830;28;20053;-72
2023/07/20 09:22:39;;;;;;;3.22;1.40;;;;;;;;;;5026015;28;20059;-72
2023/07/20 09:25:12;;;;;;;3.10;1.40;;;;;;;;;;5028041;28;20018;-72
2023/07/20 09:27:43;;;;;;;2.67;1.52;;;;;;;;;;5028247;28;20035;-72
2023/07/20 09:30:12;;;;;;;1.70;1.20;;;;;;;;;;5022862;28;20025;-72
2023/07/20 09:32:39;;;;;;;2.42;1.17;;;;;;;;;;5028333;28;20091;-72
2023/07/20 09:35:04;;;;;;;1.60;0.85;;;;;;;;;;5029851;28;20029;-72
2023/07/20 09:37:32;;;;;;;3.03;1.05;;;;;;;;;;5028207;28;20091;-72
2023/07/20 09:39:58;;;;;;;3.80;1.10;;;;;;;;;;5029474;28;20497;-72
2023/07/20 09:42:25;;;;;;;2.95;0.80;;;;;;;;;;5024634;28;20057;-72
2023/07/20 09:44:50;;;;;;;2.58;1.13;;;;;;;;;;5028696;28;20025;-72
2023/07/20 09:47:21;;;;;;;3.15;1.00;;;;;;;;;;5023549;28;20564;-72
2023/07/20 09:49:46;;;;;;;2.17;1.00;;;;;;;;;;5028454;28;20040;-72
2023/07/20 09:52:11;;;;;;;3.97;1.00;;;;;;;;;;5026913;28;20478;-72
2023/07/20 09:54:38;;;;;;;2.63;1.00;;;;;;;;;;5026230;28;20303;-72
2023/07/20 09:57:03;;;;;;;6.78;1.60;;;;;;;;;;5027235;28;20028;-71
2023/07/20 09:59:29;;;;;;;7.20;1.23;;;;;;;;;;5025777;28;20013;-72
2023/07/20 10:01:57;;;;;;;1.45;0.90;;;;;;;;;;5029895;28;20025;-72
2023/07/20 10:04:23;;;;;;;2.42;1.08;;;;;;;;;;5027750;28;20013;-72
2023/07/20 10:06:49;;;;;;;2.30;1.00;;;;;;;;;;5031890;28;20017;-71
2023/07/20 10:09:15;;;;;;;1.33;0.80;;;;;;;;;;5030864;28;20049;-72
2023/07/20 10:11:42;;;;;;;3.17;1.38;;;;;;;;;;5023143;28;20068;-72
2023/07/20 10:14:11;;;;;;;10.18;1.65;;;;;;;;;;5029662;28;20037;-72
2023/07/20 10:16:36;;;;;;;1.60;0.90;;;;;;;;;;5028667;28;20025;-72
2023/07/20 10:19:03;;;;;;;6.32;1.50;;;;;;;;;;5027816;28;20132;-72
2023/07/20 10:21:29;;;;;;;4.37;0.90;;;;;;;;;;5030338;28;20101;-71
2023/07/20 10:23:56;;;;;;;3.70;1.10;;;;;;;;;;5026948;28;20499;-72
2023/07/20 10:26:21;;;;;;;3.00;1.10;;;;;;;;;;5022841;28;20091;-72
2023/07/20 10:28:46;;;;;;;1.07;0.67;;;;;;;;;;5028965;28;20160;-72
2023/07/20 10:31:12;;;;;;;6.72;1.00;;;;;;;;;;5024613;28;20363;-72
2023/07/20 10:33:38;;;;;;;1.10;0.68;;;;;;;;;;5029748;28;20025;-72
2023/07/20 10:36:07;;;;;;;0.65;0.52;;;;;;;;;;5027771;28;21700;-72
2023/07/20 10:38:40;;;;;;;4.47;0.80;;;;;;;;;;5029769;28;20117;-72
2023/07/20 10:41:17;;;;;;;3.25;0.90;;;;;;;;;;5028431;28;20270;-72
2023/07/20 10:43:43;;;;;;;3.50;0.90;;;;;;;;;;5034177;28;20446;-72
2023/07/20 10:46:10;;;;;;;3.60;0.63;;;;;;;;;;5025461;28;20025;-72
2023/07/20 10:48:55;;;;;;;5.97;1.13;;;;;;;;;;5030495;28;20021;-72
2023/07/20 10:51:20;;;;;;;2.00;1.02;;;;;;;;;;5027779;28;20044;-73
2023/07/20 10:53:48;;;;;;;1.00;0.68;;;;;;;;;;5029187;28;20029;-73
2023/07/20 10:56:16;;;;;;;1.75;0.70;;;;;;;;;;5029085;28;20029;-72
2023/07/20 10:58:41;;;;;;;1.27;1.00;;;;;;;;;;5028442;28;20475;-73
2023/07/20 11:01:07;;;;;;;1.75;0.73;;;;;;;;;;5028202;28;20017;-72
2023/07/20 11:03:34;;;;;;;3.22;0.90;;;;;;;;;;5031885;28;20472;-72
2023/07/20 11:05:59;;;;;;;2.38;1.15;;;;;;;;;;5030625;28;20461;-72
2023/07/20 11:08:43;;;;;;;2.65;0.93;;;;;;;;;;5031892;28;20072;-72
2023/07/20 11:11:21;;;;;;;1.88;0.98;;;;;;;;;;5034703;28;20059;-72
2023/07/20 11:13:56;;;;;;;0.98;0.50;;;;;;;;;;5029379;28;20097;-72
2023/07/20 11:16:31;;;;;;;4.35;0.80;;;;;;;;;;5026931;28;20096;-72
2023/07/20 11:18:57;;;;;;;2.85;0.77;;;;;;;;;;5032561;28;20129;-73
2023/07/20 11:21:22;;;;;;;2.90;1.05;;;;;;;;;;5035730;28;20021;-73
2023/07/20 11:23:48;;;;;;;2.87;0.40;;;;;;;;;;5033577;28;20024;-73
2023/07/20 11:26:13;;;;;;;0.88;0.57;;;;;;;;;;5024925;28;20071;-73
2023/07/20 11:28:38;;;;;;;2.17;0.68;;;;;;;;;;5031294;28;20053;-73
2023/07/20 11:31:04;;;;;;;1.77;0.60;;;;;;;;;;5030728;28;20025;-73
2023/07/20 11:33:29;;;;;;;1.67;0.97;;;;;;;;;;5030801;28;20294;-73
2023/07/20 11:35:54;;;;;;;2.47;0.60;;;;;;;;;;5028267;28;20033;-73
2023/07/20 11:38:19;;;;;;;8.27;0.87;;;;;;;;;;5028937;28;20021;-73
2023/07/20 11:40:45;;;;;;;2.50;0.70;;;;;;;;;;5031135;28;20268;-73
2023/07/20 11:43:11;;;;;;;6.45;0.80;;;;;;;;;;5030352;28;20272;-73
2023/07/20 11:45:37;;;;;;;1.05;0.55;;;;;;;;;;5030885;28;20100;-73
2023/07/20 11:48:02;;;;;;;1.67;0.70;;;;;;;;;;5028550;28;20506;-73
2023/07/20 11:50:28;;;;;;;1.10;0.60;;;;;;;;;;5029254;28;20033;-73
2023/07/20 11:52:53;;;;;;;1.77;0.70;;;;;;;;;;5030168;28;20287;-73
2023/07/20 11:55:19;;;;;;;2.47;0.50;;;;;;;;;;5031992;28;20544;-73
2023/07/20 11:58:00;;;;;;;3.33;0.75;;;;;;;;;;5030201;28;20048;-73
2023/07/20 12:00:25;;;;;;;0.63;0.35;;;;;;;;;;5027545;28;20025;-73
2023/07/20 12:02:53;;;;;;;10.73;0.67;;;;;;;;;;5030798;28;20021;-73
2023/07/20 12:05:18;;;;;;;2.33;0.52;;;;;;;;;;5029821;28;20068;-74
2023/07/20 12:07:44;;;;;;;2.95;0.70;;;;;;;;;;5026591;28;20026;-74
2023/07/20 12:10:12;;;;;;;1.15;0.60;;;;;;;;;;5029762;28;20029;-74
2023/07/20 12:12:38;;;;;;;5.68;0.65;;;;;;;;;;5028647;28;20045;-74
2023/07/20 12:15:22;;;;;;;1.23;0.80;;;;;;;;;;5029936;28;20064;-74
2023/07/20 12:17:51;;;;;;;1.63;0.60;;;;;;;;;;5029915;28;20074;-74
2023/07/20 12:20:27;;;;;;;1.98;0.60;;;;;;;;;;5031605;28;20021;-74
2023/07/20 12:22:54;;;;;;;3.30;0.70;;;;;;;;;;5033967;28;20029;-73
2023/07/20 12:25:20;;;;;;;1.67;0.68;;;;;;;;;;5035079;28;20021;-73
2023/07/20 12:27:45;;;;;;;2.92;0.75;;;;;;;;;;5025231;28;20029;-73
2023/07/20 12:30:10;;;;;;;4.95;0.75;;;;;;;;;;5031882;28;20030;-73
2023/07/20 12:32:36;;;;;;;1.17;0.77;;;;;;;;;;5025788;28;20535;-73
2023/07/20 12:35:01;;;;;;;3.30;0.60;;;;;;;;;;5033045;28;20349;-73
2023/07/20 12:37:26;;;;;;;2.60;0.80;;;;;;;;;;5030881;28;20030;-73
2023/07/20 12:39:52;;;;;;;2.45;0.60;;;;;;;;;;5034645;28;20466;-73
2023/07/20 12:42:17;;;;;;;1.20;0.60;;;;;;;;;;5032163;28;20088;-73
2023/07/20 12:44:42;;;;;;;2.97;0.87;;;;;;;;;;5029175;28;20025;-73
2023/07/20 12:47:07;;;;;;;2.60;0.53;;;;;;;;;;5030619;28;20394;-73
2023/07/20 12:49:33;;;;;;;3.03;0.60;;;;;;;;;;5031161;28;20025;-74
2023/07/20 12:51:58;;;;;;;1.00;0.67;;;;;;;;;;5029503;28;20025;-74
2023/07/20 12:54:23;;;;;;;5.15;0.77;;;;;;;;;;5030419;28;20108;-74
2023/07/20 12:56:49;;;;;;;1.23;0.60;;;;;;;;;;5030743;28;20518;-74
2023/07/20 12:59:14;;;;;;;4.35;0.90;;;;;;;;;;5029439;28;20430;-73
2023/07/20 13:01:41;;;;;;;2.13;0.67;;;;;;;;;;5028784;28;20032;-73
2023/07/20 13:04:08;;;;;;;1.38;0.65;;;;;;;;;;5030110;28;20268;-73
2023/07/20 13:06:34;;;;;;;1.02;0.60;;;;;;;;;;5029680;28;20018;-73
2023/07/20 13:08:59;;;;;;;1.48;0.80;;;;;;;;;;5030413;28;20029;-73
2023/07/20 13:11:24;;;;;;;3.65;0.60;;;;;;;;;;5024388;28;20072;-73
2023/07/20 13:13:50;;;;;;;1.37;0.50;;;;;;;;;;5031771;28;20025;-74
2023/07/20 13:16:15;;;;;;;1.40;0.80;;;;;;;;;;5029540;28;20276;-74
2023/07/20 13:18:40;;;;;;;1.17;0.77;;;;;;;;;;5028422;28;20284;-74
2023/07/20 13:21:10;;;;;;;3.60;0.47;;;;;;;;;;5030471;28;20474;-74
2023/07/20 13:23:36;;;;;;;0.70;0.50;;;;;;;;;;5030639;28;20284;-74
2023/07/20 13:26:02;;;;;;;1.48;0.65;;;;;;;;;;5027142;28;20026;-74
2023/07/20 13:28:27;;;;;;;1.50;0.55;;;;;;;;;;5026201;28;20017;-73
2023/07/20 13:30:52;;;;;;;0.90;0.53;;;;;;;;;;5027861;28;20029;-73
2023/07/20 13:33:17;;;;;;;1.40;0.60;;;;;;;;;;5024674;28;20441;-73
2023/07/20 13:35:42;;;;;;;1.00;0.60;;;;;;;;;;5028792;28;20033;-73
2023/07/20 13:38:08;;;;;;;1.27;0.80;;;;;;;;;;5024723;28;20287;-73
2023/07/20 13:40:33;;;;;;;2.10;0.57;;;;;;;;;;5029764;28;20027;-73
2023/07/20 13:42:58;;;;;;;2.35;0.68;;;;;;;;;;5030108;28;20071;-73
2023/07/20 13:45:23;;;;;;;1.30;0.70;;;;;;;;;;5030060;28;20031;-73
2023/07/20 13:47:48;;;;;;;1.70;0.80;;;;;;;;;;5029838;28;20166;-73
2023/07/20 13:50:14;;;;;;;2.00;0.90;;;;;;;;;;5029908;28;20811;-74
2023/07/20 13:52:39;;;;;;;2.70;0.80;;;;;;;;;;5029230;28;20750;-74
2023/07/20 13:55:04;;;;;;;2.23;0.83;;;;;;;;;;5029665;28;20291;-74
2023/07/20 13:57:29;;;;;;;4.30;1.05;;;;;;;;;;5028102;28;20040;-74
2023/07/20 13:59:55;;;;;;;1.73;0.90;;;;;;;;;;5028336;28;20060;-74
2023/07/20 14:02:20;;;;;;;1.35;0.68;;;;;;;;;;5027917;28;20479;-74
2023/07/20 14:04:45;;;;;;;1.40;0.73;;;;;;;;;;5030602;28;20018;-74
2023/07/20 14:07:11;;;;;;;0.70;0.60;;;;;;;;;;5029063;28;20466;-73
2023/07/20 14:09:36;;;;;;;1.52;0.70;;;;;;;;;;5028530;28;20017;-73
2023/07/20 14:12:01;;;;;;;2.73;0.60;;;;;;;;;;5027184;28;20541;-73
2023/07/20 14:14:26;;;;;;;2.93;1.00;;;;;;;;;;5025641;28;20071;-73
2023/07/20 14:16:52;;;;;;;1.33;0.68;;;;;;;;;;5025748;28;20291;-73
2023/07/20 14:19:17;;;;;;;1.40;0.70;;;;;;;;;;5028024;28;20017;-73
2023/07/20 14:21:42;;;;;;;7.17;0.70;;;;;;;;;;5024132;28;20026;-73
2023/07/20 14:24:07;;;;;;;2.20;0.73;;;;;;;;;;5024365;28;20753;-73
2023/07/20 14:26:32;;;;;;;3.33;0.80;;;;;;;;;;5024853;28;20760;-73
2023/07/20 14:28:57;;;;;;;1.65;1.00;;;;;;;;;;5025485;28;20347;-73
2023/07/20 14:31:23;;;;;;;1.87;0.70;;;;;;;;;;5023292;28;20037;-73